X  Zatvori METAR Podaci o vazduhoplovstvu     LYNI Nis Airport
Temperatura
-3°C Temperatura
-8°C Tačka Rose
69% Vlaga



Vetar
25 MPH
40 KM/H
11 M/S
22 KTS



330°
SSZ
Trenutna situacija

Slaba Snow Slaba Snow
Vazdušni pritisak 1025.92 (hPa) - 30.3 (inHg)
Vidljivost 6.2 (Milja) - 10 (km)
Aerodrom
Aerodromski kod. LYNI

Lokacija: Nis Airport
Udaljenost: 63 (mi)

Metar:
LYNI 050800Z 33022G32KT 9999 -SN SCT020 BKN040 M03/M08 Q1026 NOSIG

Vreme: 05-02-2023 09:00 CET